sensor_id;sensor_type;location;lat;lon;timestamp;pressure;altitude;pressure_sealevel;temperature;humidity
84926;BME280;75187;48.190;16.294;2024-03-02T00:02:13;98447.75;;;10.29;77.97
84926;BME280;75187;48.190;16.294;2024-03-02T00:04:39;98450.78;;;10.43;77.97
84926;BME280;75187;48.190;16.294;2024-03-02T00:07:04;98438.88;;;10.39;76.85
84926;BME280;75187;48.190;16.294;2024-03-02T00:09:30;98401.69;;;10.33;76.14
84926;BME280;75187;48.190;16.294;2024-03-02T00:11:56;98440.25;;;10.53;76.64
84926;BME280;75187;48.190;16.294;2024-03-02T00:14:22;98444.13;;;10.49;76.59
84926;BME280;75187;48.190;16.294;2024-03-02T00:16:49;98458.00;;;10.32;77.08
84926;BME280;75187;48.190;16.294;2024-03-02T00:19:14;98392.78;;;9.87;77.46
84926;BME280;75187;48.190;16.294;2024-03-02T00:21:40;98393.94;;;10.03;78.04
84926;BME280;75187;48.190;16.294;2024-03-02T00:24:21;98396.44;;;10.33;76.63
84926;BME280;75187;48.190;16.294;2024-03-02T00:26:50;98378.41;;;10.38;75.06
84926;BME280;75187;48.190;16.294;2024-03-02T00:29:17;98409.56;;;10.71;75.72
84926;BME280;75187;48.190;16.294;2024-03-02T00:31:44;98433.84;;;10.84;74.41
84926;BME280;75187;48.190;16.294;2024-03-02T00:34:12;98420.50;;;10.85;74.27
84926;BME280;75187;48.190;16.294;2024-03-02T00:36:38;98400.09;;;10.87;73.27
84926;BME280;75187;48.190;16.294;2024-03-02T00:39:04;98443.75;;;11.18;73.95
84926;BME280;75187;48.190;16.294;2024-03-02T00:41:33;98442.88;;;11.27;71.69
84926;BME280;75187;48.190;16.294;2024-03-02T00:46:39;98438.81;;;11.33;72.71
84926;BME280;75187;48.190;16.294;2024-03-02T00:51:37;98441.75;;;11.30;71.65
84926;BME280;75187;48.190;16.294;2024-03-02T00:54:07;98388.22;;;11.10;71.61
84926;BME280;75187;48.190;16.294;2024-03-02T00:56:34;98429.06;;;11.43;70.93
84926;BME280;75187;48.190;16.294;2024-03-02T00:59:00;98385.41;;;11.21;70.96
84926;BME280;75187;48.190;16.294;2024-03-02T01:01:26;98361.72;;;11.12;69.97
84926;BME280;75187;48.190;16.294;2024-03-02T01:03:51;98330.22;;;11.01;70.16
84926;BME280;75187;48.190;16.294;2024-03-02T01:06:17;98423.75;;;11.52;70.31
84926;BME280;75187;48.190;16.294;2024-03-02T01:08:42;98414.59;;;11.47;70.01
84926;BME280;75187;48.190;16.294;2024-03-02T01:11:08;98412.50;;;11.50;70.58
84926;BME280;75187;48.190;16.294;2024-03-02T01:13:34;98415.00;;;11.52;70.07
84926;BME280;75187;48.190;16.294;2024-03-02T01:16:00;98367.63;;;11.23;70.32
84926;BME280;75187;48.190;16.294;2024-03-02T01:18:26;98412.19;;;11.53;70.33
84926;BME280;75187;48.190;16.294;2024-03-02T01:20:52;98416.25;;;11.48;70.32
84926;BME280;75187;48.190;16.294;2024-03-02T01:23:18;98371.38;;;11.21;70.35
84926;BME280;75187;48.190;16.294;2024-03-02T01:25:45;98417.81;;;11.41;70.39
84926;BME280;75187;48.190;16.294;2024-03-02T01:28:11;98406.72;;;11.37;70.46
84926;BME280;75187;48.190;16.294;2024-03-02T01:30:36;98411.44;;;11.34;70.21
84926;BME280;75187;48.190;16.294;2024-03-02T01:33:02;98412.00;;;11.37;69.94
84926;BME280;75187;48.190;16.294;2024-03-02T01:35:27;98410.63;;;11.33;70.30
84926;BME280;75187;48.190;16.294;2024-03-02T01:37:53;98361.16;;;10.72;71.11
84926;BME280;75187;48.190;16.294;2024-03-02T01:40:19;98409.97;;;10.76;71.51
84926;BME280;75187;48.190;16.294;2024-03-02T01:42:44;98378.81;;;10.15;72.48
84926;BME280;75187;48.190;16.294;2024-03-02T01:45:10;98394.75;;;10.04;73.91
84926;BME280;75187;48.190;16.294;2024-03-02T01:47:35;98415.00;;;10.32;73.55
84926;BME280;75187;48.190;16.294;2024-03-02T01:50:01;98376.06;;;10.16;73.28
84926;BME280;75187;48.190;16.294;2024-03-02T01:52:27;98421.09;;;10.60;73.10
84926;BME280;75187;48.190;16.294;2024-03-02T01:54:52;98376.72;;;10.37;72.67
84926;BME280;75187;48.190;16.294;2024-03-02T01:57:18;98405.69;;;10.65;71.93
84926;BME280;75187;48.190;16.294;2024-03-02T01:59:46;98417.59;;;10.79;71.99
84926;BME280;75187;48.190;16.294;2024-03-02T02:02:13;98403.63;;;10.50;72.24
84926;BME280;75187;48.190;16.294;2024-03-02T02:04:39;98409.16;;;10.66;72.74
84926;BME280;75187;48.190;16.294;2024-03-02T02:07:04;98380.31;;;10.55;72.25
84926;BME280;75187;48.190;16.294;2024-03-02T02:09:30;98412.59;;;10.76;72.40
84926;BME280;75187;48.190;16.294;2024-03-02T02:11:55;98409.41;;;10.82;71.43
84926;BME280;75187;48.190;16.294;2024-03-02T02:14:21;98403.88;;;10.75;72.46
84926;BME280;75187;48.190;16.294;2024-03-02T02:16:46;98393.47;;;10.74;72.32
84926;BME280;75187;48.190;16.294;2024-03-02T02:19:11;98387.91;;;10.77;72.36
84926;BME280;75187;48.190;16.294;2024-03-02T02:21:37;98414.41;;;10.85;72.08
84926;BME280;75187;48.190;16.294;2024-03-02T02:24:02;98384.97;;;10.80;71.26
84926;BME280;75187;48.190;16.294;2024-03-02T02:26:29;98348.94;;;10.61;71.57
84926;BME280;75187;48.190;16.294;2024-03-02T02:28:54;98373.75;;;10.78;71.04
84926;BME280;75187;48.190;16.294;2024-03-02T02:31:20;98395.38;;;10.91;71.49
84926;BME280;75187;48.190;16.294;2024-03-02T02:33:45;98397.31;;;10.89;72.10
84926;BME280;75187;48.190;16.294;2024-03-02T02:36:11;98387.19;;;10.84;72.38
84926;BME280;75187;48.190;16.294;2024-03-02T02:38:39;98387.63;;;10.89;72.29
84926;BME280;75187;48.190;16.294;2024-03-02T02:41:06;98376.50;;;10.86;72.34
84926;BME280;75187;48.190;16.294;2024-03-02T02:43:31;98335.09;;;10.50;72.42
84926;BME280;75187;48.190;16.294;2024-03-02T02:45:56;98324.16;;;10.45;72.80
84926;BME280;75187;48.190;16.294;2024-03-02T02:48:22;98340.44;;;10.22;73.93
84926;BME280;75187;48.190;16.294;2024-03-02T02:50:47;98350.97;;;10.31;73.92
84926;BME280;75187;48.190;16.294;2024-03-02T02:53:13;98391.84;;;10.63;73.58
84926;BME280;75187;48.190;16.294;2024-03-02T02:55:39;98378.38;;;10.66;72.34
84926;BME280;75187;48.190;16.294;2024-03-02T02:58:11;98391.81;;;10.73;72.88
84926;BME280;75187;48.190;16.294;2024-03-02T03:00:36;98379.19;;;10.67;72.10
84926;BME280;75187;48.190;16.294;2024-03-02T03:03:02;98376.00;;;10.73;72.48
84926;BME280;75187;48.190;16.294;2024-03-02T03:05:28;98369.06;;;10.72;72.10
84926;BME280;75187;48.190;16.294;2024-03-02T03:07:54;98358.25;;;10.65;72.83
84926;BME280;75187;48.190;16.294;2024-03-02T03:10:19;98336.75;;;10.51;72.11
84926;BME280;75187;48.190;16.294;2024-03-02T03:12:47;98368.75;;;10.75;71.53
84926;BME280;75187;48.190;16.294;2024-03-02T03:15:13;98369.06;;;10.72;72.10
84926;BME280;75187;48.190;16.294;2024-03-02T03:17:39;98380.84;;;10.77;71.78
84926;BME280;75187;48.190;16.294;2024-03-02T03:20:05;98391.66;;;10.84;72.63
84926;BME280;75187;48.190;16.294;2024-03-02T03:22:31;98375.13;;;10.82;72.52
84926;BME280;75187;48.190;16.294;2024-03-02T03:24:57;98333.00;;;10.63;72.55
84926;BME280;75187;48.190;16.294;2024-03-02T03:27:22;98389.78;;;10.94;71.54
84926;BME280;75187;48.190;16.294;2024-03-02T03:29:48;98389.69;;;10.86;71.25
84926;BME280;75187;48.190;16.294;2024-03-02T03:32:13;98344.28;;;10.27;72.28
84926;BME280;75187;48.190;16.294;2024-03-02T03:34:39;98393.78;;;10.52;73.50
84926;BME280;75187;48.190;16.294;2024-03-02T03:37:04;98385.31;;;10.39;73.93
84926;BME280;75187;48.190;16.294;2024-03-02T03:39:29;98374.66;;;10.31;73.91
84926;BME280;75187;48.190;16.294;2024-03-02T03:41:55;98358.31;;;10.09;73.23
84926;BME280;75187;48.190;16.294;2024-03-02T03:44:20;98396.50;;;9.75;76.73
84926;BME280;75187;48.190;16.294;2024-03-02T03:46:45;98360.78;;;9.23;77.48
84926;BME280;75187;48.190;16.294;2024-03-02T03:49:11;98389.03;;;9.21;78.46
84926;BME280;75187;48.190;16.294;2024-03-02T03:51:36;98382.16;;;9.39;78.32
84926;BME280;75187;48.190;16.294;2024-03-02T03:54:01;98391.28;;;8.75;80.45
84926;BME280;75187;48.190;16.294;2024-03-02T03:56:27;98399.09;;;8.86;79.96
84926;BME280;75187;48.190;16.294;2024-03-02T03:58:52;98409.03;;;8.83;79.97
84926;BME280;75187;48.190;16.294;2024-03-02T04:01:18;98367.31;;;8.48;80.55
84926;BME280;75187;48.190;16.294;2024-03-02T04:03:43;98416.91;;;8.62;81.38
84926;BME280;75187;48.190;16.294;2024-03-02T04:06:08;98358.09;;;8.33;81.17
84926;BME280;75187;48.190;16.294;2024-03-02T04:08:34;98405.13;;;8.57;81.58
84926;BME280;75187;48.190;16.294;2024-03-02T04:10:59;98386.47;;;8.60;81.05
84926;BME280;75187;48.190;16.294;2024-03-02T04:13:25;98394.34;;;8.80;80.16
84926;BME280;75187;48.190;16.294;2024-03-02T04:15:50;98417.38;;;9.18;79.66
84926;BME280;75187;48.190;16.294;2024-03-02T04:18:15;98403.22;;;9.49;77.36
84926;BME280;75187;48.190;16.294;2024-03-02T04:20:41;98405.44;;;9.53;77.32
84926;BME280;75187;48.190;16.294;2024-03-02T04:23:07;98374.41;;;9.47;77.06
84926;BME280;75187;48.190;16.294;2024-03-02T04:25:32;98406.91;;;9.76;77.24
84926;BME280;75187;48.190;16.294;2024-03-02T04:27:58;98409.84;;;9.92;76.53
84926;BME280;75187;48.190;16.294;2024-03-02T04:30:23;98411.09;;;9.88;76.75
84926;BME280;75187;48.190;16.294;2024-03-02T04:32:48;98408.00;;;9.83;76.72
84926;BME280;75187;48.190;16.294;2024-03-02T04:35:14;98370.78;;;9.39;76.71
84926;BME280;75187;48.190;16.294;2024-03-02T04:37:39;98428.31;;;8.93;80.79
84926;BME280;75187;48.190;16.294;2024-03-02T04:40:05;98371.34;;;8.73;79.18
84926;BME280;75187;48.190;16.294;2024-03-02T04:42:34;98416.63;;;8.24;82.66
84926;BME280;75187;48.190;16.294;2024-03-02T04:45:00;98431.19;;;8.18;83.82
84926;BME280;75187;48.190;16.294;2024-03-02T04:47:25;98364.47;;;7.68;84.05
84926;BME280;75187;48.190;16.294;2024-03-02T04:49:50;98419.19;;;8.04;84.20
84926;BME280;75187;48.190;16.294;2024-03-02T04:52:16;98386.47;;;7.88;82.95
84926;BME280;75187;48.190;16.294;2024-03-02T04:54:42;98387.03;;;8.23;82.19
84926;BME280;75187;48.190;16.294;2024-03-02T04:57:26;98445.44;;;8.67;81.04
84926;BME280;75187;48.190;16.294;2024-03-02T04:59:51;98425.81;;;8.50;81.23
84926;BME280;75187;48.190;16.294;2024-03-02T05:02:17;98406.72;;;8.48;80.83
84926;BME280;75187;48.190;16.294;2024-03-02T05:04:42;98426.75;;;8.29;82.33
84926;BME280;75187;48.190;16.294;2024-03-02T05:07:07;98416.41;;;7.85;83.57
84926;BME280;75187;48.190;16.294;2024-03-02T05:09:33;98419.06;;;7.63;84.45
84926;BME280;75187;48.190;16.294;2024-03-02T05:11:58;98458.00;;;7.90;83.90
84926;BME280;75187;48.190;16.294;2024-03-02T05:14:47;98454.69;;;7.88;84.17
84926;BME280;75187;48.190;16.294;2024-03-02T05:17:13;98404.59;;;7.80;83.34
84926;BME280;75187;48.190;16.294;2024-03-02T05:19:38;98462.47;;;8.52;81.26
84926;BME280;75187;48.190;16.294;2024-03-02T05:22:04;98452.16;;;8.80;80.43
84926;BME280;75187;48.190;16.294;2024-03-02T05:24:29;98464.25;;;8.92;80.21
84926;BME280;75187;48.190;16.294;2024-03-02T05:26:55;98411.50;;;8.54;79.30
84926;BME280;75187;48.190;16.294;2024-03-02T05:29:21;98475.50;;;8.11;82.45
84926;BME280;75187;48.190;16.294;2024-03-02T05:31:46;98480.78;;;7.89;83.32
84926;BME280;75187;48.190;16.294;2024-03-02T05:34:12;98468.63;;;7.88;82.86
84926;BME280;75187;48.190;16.294;2024-03-02T05:36:37;98411.53;;;7.70;82.32
84926;BME280;75187;48.190;16.294;2024-03-02T05:39:07;98478.06;;;7.80;82.64
84926;BME280;75187;48.190;16.294;2024-03-02T05:41:35;98481.56;;;7.47;84.35
84926;BME280;75187;48.190;16.294;2024-03-02T05:44:00;98485.22;;;7.45;84.22
84926;BME280;75187;48.190;16.294;2024-03-02T05:46:26;98431.59;;;6.83;85.90
84926;BME280;75187;48.190;16.294;2024-03-02T05:48:51;98426.09;;;6.75;85.64
84926;BME280;75187;48.190;16.294;2024-03-02T05:51:17;98443.50;;;6.76;86.47
84926;BME280;75187;48.190;16.294;2024-03-02T05:53:42;98480.47;;;7.06;86.88
84926;BME280;75187;48.190;16.294;2024-03-02T05:56:08;98448.38;;;6.80;86.45
84926;BME280;75187;48.190;16.294;2024-03-02T05:58:33;98452.19;;;6.76;86.75
84926;BME280;75187;48.190;16.294;2024-03-02T06:01:13;98497.53;;;6.66;89.33
84926;BME280;75187;48.190;16.294;2024-03-02T06:20:24;98465.66;;;6.83;88.40
84926;BME280;75187;48.190;16.294;2024-03-02T06:22:51;98522.19;;;7.53;86.54
84926;BME280;75187;48.190;16.294;2024-03-02T06:25:17;98456.19;;;7.48;85.59
84926;BME280;75187;48.190;16.294;2024-03-02T06:27:42;98525.28;;;7.25;87.66
84926;BME280;75187;48.190;16.294;2024-03-02T06:30:08;98453.53;;;6.93;87.01
84926;BME280;75187;48.190;16.294;2024-03-02T06:32:33;98512.16;;;7.80;85.74
84926;BME280;75187;48.190;16.294;2024-03-02T06:34:59;98504.97;;;8.15;83.77
84926;BME280;75187;48.190;16.294;2024-03-02T06:37:24;98447.59;;;7.99;82.90
84926;BME280;75187;48.190;16.294;2024-03-02T06:39:50;98487.22;;;8.38;82.38
84926;BME280;75187;48.190;16.294;2024-03-02T06:42:15;98501.50;;;8.56;81.71
84926;BME280;75187;48.190;16.294;2024-03-02T06:44:40;98490.41;;;8.53;81.75
84926;BME280;75187;48.190;16.294;2024-03-02T06:47:06;98503.66;;;8.20;83.00
84926;BME280;75187;48.190;16.294;2024-03-02T06:49:31;98441.84;;;7.74;83.51
84926;BME280;75187;48.190;16.294;2024-03-02T06:51:56;98515.00;;;8.21;83.76
84926;BME280;75187;48.190;16.294;2024-03-02T06:54:22;98521.91;;;8.00;85.86
84926;BME280;75187;48.190;16.294;2024-03-02T06:56:47;98514.28;;;8.08;85.14
84926;BME280;75187;48.190;16.294;2024-03-02T06:59:12;98516.91;;;7.97;84.77
84926;BME280;75187;48.190;16.294;2024-03-02T07:01:38;98522.41;;;7.83;85.71
84926;BME280;75187;48.190;16.294;2024-03-02T07:04:03;98465.09;;;6.90;88.17
84926;BME280;75187;48.190;16.294;2024-03-02T07:06:31;98515.00;;;7.11;89.22
84926;BME280;75187;48.190;16.294;2024-03-02T07:08:57;98473.22;;;6.64;90.82
84926;BME280;75187;48.190;16.294;2024-03-02T07:11:22;98530.94;;;6.97;91.08
84926;BME280;75187;48.190;16.294;2024-03-02T07:13:47;98514.22;;;6.76;91.28
84926;BME280;75187;48.190;16.294;2024-03-02T07:16:13;98527.06;;;6.68;92.03
84926;BME280;75187;48.190;16.294;2024-03-02T07:18:54;98527.44;;;6.51;92.96
84926;BME280;75187;48.190;16.294;2024-03-02T07:21:20;98523.88;;;6.75;91.69
84926;BME280;75187;48.190;16.294;2024-03-02T07:23:47;98523.56;;;7.02;91.93
84926;BME280;75187;48.190;16.294;2024-03-02T07:26:13;98479.56;;;6.72;90.92
84926;BME280;75187;48.190;16.294;2024-03-02T07:28:40;98535.50;;;7.06;91.33
84926;BME280;75187;48.190;16.294;2024-03-02T07:31:06;98478.88;;;6.47;92.22
84926;BME280;75187;48.190;16.294;2024-03-02T07:33:31;98525.59;;;6.64;92.89
84926;BME280;75187;48.190;16.294;2024-03-02T07:35:57;98437.09;;;6.11;92.78
84926;BME280;75187;48.190;16.294;2024-03-02T07:38:25;98494.81;;;6.44;92.26
84926;BME280;75187;48.190;16.294;2024-03-02T07:40:50;98557.78;;;6.77;92.12
84926;BME280;75187;48.190;16.294;2024-03-02T07:43:16;98525.19;;;6.46;91.70
84926;BME280;75187;48.190;16.294;2024-03-02T07:45:42;98496.84;;;6.17;92.91
84926;BME280;75187;48.190;16.294;2024-03-02T07:48:07;98514.94;;;6.20;93.21
84926;BME280;75187;48.190;16.294;2024-03-02T07:50:33;98529.34;;;6.25;93.09
84926;BME280;75187;48.190;16.294;2024-03-02T07:53:00;98561.13;;;6.55;92.78
84926;BME280;75187;48.190;16.294;2024-03-02T07:55:26;98576.56;;;6.71;92.55
84926;BME280;75187;48.190;16.294;2024-03-02T07:57:51;98524.00;;;6.50;91.99
84926;BME280;75187;48.190;16.294;2024-03-02T08:00:17;98556.56;;;7.04;90.32
84926;BME280;75187;48.190;16.294;2024-03-02T08:02:42;98509.84;;;6.87;89.67
84926;BME280;75187;48.190;16.294;2024-03-02T08:05:08;98551.97;;;7.30;89.41
84926;BME280;75187;48.190;16.294;2024-03-02T08:07:34;98547.22;;;7.46;88.05
84926;BME280;75187;48.190;16.294;2024-03-02T08:09:59;98552.81;;;7.63;87.37
84926;BME280;75187;48.190;16.294;2024-03-02T08:12:24;98502.28;;;7.61;86.74
84926;BME280;75187;48.190;16.294;2024-03-02T08:14:50;98546.63;;;7.42;87.16
84926;BME280;75187;48.190;16.294;2024-03-02T08:17:15;98520.38;;;7.20;87.68
84926;BME280;75187;48.190;16.294;2024-03-02T08:19:41;98566.53;;;7.45;88.82
84926;BME280;75187;48.190;16.294;2024-03-02T08:22:06;98515.84;;;7.11;88.58
84926;BME280;75187;48.190;16.294;2024-03-02T08:24:32;98524.28;;;6.93;89.30
84926;BME280;75187;48.190;16.294;2024-03-02T08:26:59;98545.06;;;7.40;88.80
84926;BME280;75187;48.190;16.294;2024-03-02T08:29:24;98449.38;;;6.90;88.18
84926;BME280;75187;48.190;16.294;2024-03-02T08:31:50;98528.16;;;7.22;88.28
84926;BME280;75187;48.190;16.294;2024-03-02T08:34:15;98525.78;;;7.52;87.86
84926;BME280;75187;48.190;16.294;2024-03-02T08:36:41;98571.56;;;7.48;88.47
84926;BME280;75187;48.190;16.294;2024-03-02T08:39:08;98529.56;;;7.26;89.46
84926;BME280;75187;48.190;16.294;2024-03-02T08:41:41;98551.88;;;7.64;88.31
84926;BME280;75187;48.190;16.294;2024-03-02T08:44:07;98507.16;;;7.77;87.61
84926;BME280;75187;48.190;16.294;2024-03-02T08:46:32;98558.91;;;7.97;86.67
84926;BME280;75187;48.190;16.294;2024-03-02T08:48:57;98545.16;;;8.04;86.65
84926;BME280;75187;48.190;16.294;2024-03-02T08:51:23;98505.97;;;7.59;87.33
84926;BME280;75187;48.190;16.294;2024-03-02T08:53:48;98559.50;;;7.89;87.35
84926;BME280;75187;48.190;16.294;2024-03-02T08:56:14;98556.06;;;7.89;87.21
84926;BME280;75187;48.190;16.294;2024-03-02T08:58:41;98503.69;;;7.76;87.46
84926;BME280;75187;48.190;16.294;2024-03-02T09:01:06;98487.84;;;7.89;86.59
84926;BME280;75187;48.190;16.294;2024-03-02T09:03:33;98549.34;;;8.18;86.94
84926;BME280;75187;48.190;16.294;2024-03-02T09:06:00;98555.31;;;8.20;86.74
84926;BME280;75187;48.190;16.294;2024-03-02T09:08:25;98507.59;;;8.04;85.84
84926;BME280;75187;48.190;16.294;2024-03-02T09:10:51;98532.75;;;8.28;85.75
84926;BME280;75187;48.190;16.294;2024-03-02T09:13:17;98546.53;;;8.52;85.91
84926;BME280;75187;48.190;16.294;2024-03-02T09:15:42;98535.25;;;8.40;86.19
84926;BME280;75187;48.190;16.294;2024-03-02T09:18:09;98489.31;;;8.13;86.36
84926;BME280;75187;48.190;16.294;2024-03-02T09:20:35;98481.63;;;8.01;86.92
84926;BME280;75187;48.190;16.294;2024-03-02T09:23:00;98454.16;;;8.05;86.03
84926;BME280;75187;48.190;16.294;2024-03-02T09:25:26;98533.81;;;8.88;85.63
84926;BME280;75187;48.190;16.294;2024-03-02T09:27:51;98538.97;;;9.10;84.82
84926;BME280;75187;48.190;16.294;2024-03-02T09:30:17;98523.16;;;9.01;84.94
84926;BME280;75187;48.190;16.294;2024-03-02T09:32:42;98533.41;;;9.24;83.50
84926;BME280;75187;48.190;16.294;2024-03-02T09:35:08;98526.16;;;9.17;84.85
84926;BME280;75187;48.190;16.294;2024-03-02T09:37:34;98496.38;;;8.75;85.68
84926;BME280;75187;48.190;16.294;2024-03-02T09:39:59;98477.56;;;8.70;85.19
84926;BME280;75187;48.190;16.294;2024-03-02T09:42:25;98495.47;;;8.65;86.68
84926;BME280;75187;48.190;16.294;2024-03-02T09:44:52;98486.28;;;8.60;86.77
84926;BME280;75187;48.190;16.294;2024-03-02T09:47:17;98540.13;;;8.65;88.18
84926;BME280;75187;48.190;16.294;2024-03-02T09:49:43;98444.09;;;8.10;88.83
84926;BME280;75187;48.190;16.294;2024-03-02T09:52:10;98519.53;;;8.61;88.95
84926;BME280;75187;48.190;16.294;2024-03-02T09:54:35;98533.19;;;8.75;88.61
84926;BME280;75187;48.190;16.294;2024-03-02T09:57:02;98533.88;;;8.77;88.31
84926;BME280;75187;48.190;16.294;2024-03-02T09:59:28;98528.13;;;8.83;87.92
84926;BME280;75187;48.190;16.294;2024-03-02T10:02:01;98520.69;;;8.88;87.86
84926;BME280;75187;48.190;16.294;2024-03-02T10:04:31;98468.06;;;8.58;88.25
84926;BME280;75187;48.190;16.294;2024-03-02T10:07:12;98524.50;;;8.95;88.18
84926;BME280;75187;48.190;16.294;2024-03-02T10:09:39;98456.22;;;8.64;88.25
84926;BME280;75187;48.190;16.294;2024-03-02T10:12:06;98514.63;;;9.08;87.98
84926;BME280;75187;48.190;16.294;2024-03-02T10:14:32;98515.38;;;9.20;87.14
84926;BME280;75187;48.190;16.294;2024-03-02T10:17:05;98474.59;;;8.84;87.24
84926;BME280;75187;48.190;16.294;2024-03-02T10:19:31;98466.78;;;8.73;87.38
84926;BME280;75187;48.190;16.294;2024-03-02T10:22:04;98465.75;;;8.65;87.75
84926;BME280;75187;48.190;16.294;2024-03-02T10:24:44;98500.09;;;8.93;88.70
84926;BME280;75187;48.190;16.294;2024-03-02T10:27:15;98465.13;;;8.72;87.74
84926;BME280;75187;48.190;16.294;2024-03-02T10:29:41;98527.22;;;9.14;87.44
84926;BME280;75187;48.190;16.294;2024-03-02T10:32:11;98521.78;;;9.06;87.67
84926;BME280;75187;48.190;16.294;2024-03-02T10:34:36;98524.66;;;9.24;88.18
84926;BME280;75187;48.190;16.294;2024-03-02T10:37:02;98516.66;;;9.25;87.72
84926;BME280;75187;48.190;16.294;2024-03-02T10:39:28;98526.63;;;9.31;86.90
84926;BME280;75187;48.190;16.294;2024-03-02T10:41:55;98427.88;;;8.88;87.45
84926;BME280;75187;48.190;16.294;2024-03-02T10:44:22;98514.94;;;9.15;88.60
84926;BME280;75187;48.190;16.294;2024-03-02T10:46:49;98414.03;;;8.65;87.63
84926;BME280;75187;48.190;16.294;2024-03-02T10:49:16;98409.94;;;8.72;87.96
84926;BME280;75187;48.190;16.294;2024-03-02T10:51:42;98501.22;;;9.41;87.27
84926;BME280;75187;48.190;16.294;2024-03-02T10:54:07;98458.25;;;9.31;86.92
84926;BME280;75187;48.190;16.294;2024-03-02T10:56:34;98489.28;;;9.67;86.58
84926;BME280;75187;48.190;16.294;2024-03-02T10:59:26;98439.38;;;9.56;85.42
84926;BME280;75187;48.190;16.294;2024-03-02T11:01:56;98434.56;;;9.61;84.72
84926;BME280;75187;48.190;16.294;2024-03-02T11:04:27;98500.38;;;10.10;85.05
84926;BME280;75187;48.190;16.294;2024-03-02T11:07:00;98494.59;;;10.16;85.16
84926;BME280;75187;48.190;16.294;2024-03-02T11:09:27;98486.00;;;10.33;85.25
84926;BME280;75187;48.190;16.294;2024-03-02T11:12:03;98432.75;;;10.11;83.65
84926;BME280;75187;48.190;16.294;2024-03-02T11:14:32;98450.38;;;10.38;83.19
84926;BME280;75187;48.190;16.294;2024-03-02T11:17:00;98466.06;;;10.59;83.53
84926;BME280;75187;48.190;16.294;2024-03-02T11:19:27;98449.28;;;10.50;82.45
84926;BME280;75187;48.190;16.294;2024-03-02T11:21:53;98432.50;;;10.42;83.07
84926;BME280;75187;48.190;16.294;2024-03-02T11:26:50;98479.22;;;10.59;82.81
84926;BME280;75187;48.190;16.294;2024-03-02T11:32:01;98476.72;;;10.86;83.51
84926;BME280;75187;48.190;16.294;2024-03-02T11:36:55;98398.09;;;10.43;81.91
84926;BME280;75187;48.190;16.294;2024-03-02T11:39:21;98466.16;;;10.86;82.44
84926;BME280;75187;48.190;16.294;2024-03-02T11:41:46;98427.19;;;10.70;82.03
84926;BME280;75187;48.190;16.294;2024-03-02T11:44:12;98482.94;;;11.04;82.10
84926;BME280;75187;48.190;16.294;2024-03-02T11:46:39;98467.69;;;10.98;81.31
84926;BME280;75187;48.190;16.294;2024-03-02T11:49:05;98481.66;;;11.08;81.50
84926;BME280;75187;48.190;16.294;2024-03-02T11:51:34;98437.06;;;10.59;83.69
84926;BME280;75187;48.190;16.294;2024-03-02T11:54:00;98437.75;;;10.61;83.92
84926;BME280;75187;48.190;16.294;2024-03-02T11:56:28;98461.63;;;10.69;83.99
84926;BME280;75187;48.190;16.294;2024-03-02T11:58:56;98448.84;;;10.55;84.13
84926;BME280;75187;48.190;16.294;2024-03-02T12:01:22;98466.03;;;10.68;83.59
84926;BME280;75187;48.190;16.294;2024-03-02T12:03:48;98468.00;;;10.66;84.38
84926;BME280;75187;48.190;16.294;2024-03-02T12:06:14;98493.22;;;10.88;84.31
84926;BME280;75187;48.190;16.294;2024-03-02T12:08:40;98487.66;;;10.91;84.25
84926;BME280;75187;48.190;16.294;2024-03-02T12:11:05;98442.28;;;10.78;83.33
84926;BME280;75187;48.190;16.294;2024-03-02T12:13:31;98466.84;;;10.88;82.94
84926;BME280;75187;48.190;16.294;2024-03-02T12:15:58;98454.34;;;10.90;82.56
84926;BME280;75187;48.190;16.294;2024-03-02T12:18:23;98432.56;;;10.88;82.83
84926;BME280;75187;48.190;16.294;2024-03-02T12:20:50;98484.69;;;11.22;82.17
84926;BME280;75187;48.190;16.294;2024-03-02T12:23:22;98437.97;;;10.96;82.16
84926;BME280;75187;48.190;16.294;2024-03-02T12:25:48;98485.25;;;11.26;81.78
84926;BME280;75187;48.190;16.294;2024-03-02T12:28:14;98436.28;;;10.95;81.10
84926;BME280;75187;48.190;16.294;2024-03-02T12:30:39;98477.88;;;11.29;81.78
84926;BME280;75187;48.190;16.294;2024-03-02T12:33:05;98440.72;;;11.04;81.58
84926;BME280;75187;48.190;16.294;2024-03-02T12:35:30;98482.72;;;11.34;82.35
84926;BME280;75187;48.190;16.294;2024-03-02T12:37:56;98480.06;;;11.43;81.53
84926;BME280;75187;48.190;16.294;2024-03-02T12:40:22;98479.72;;;11.56;80.87
84926;BME280;75187;48.190;16.294;2024-03-02T12:42:48;98469.44;;;11.62;80.98
84926;BME280;75187;48.190;16.294;2024-03-02T12:45:14;98411.56;;;11.42;80.54
84926;BME280;75187;48.190;16.294;2024-03-02T12:47:41;98426.91;;;11.56;80.40
84926;BME280;75187;48.190;16.294;2024-03-02T12:50:07;98419.16;;;11.64;80.09
84926;BME280;75187;48.190;16.294;2024-03-02T12:52:33;98407.53;;;11.47;79.50
84926;BME280;75187;48.190;16.294;2024-03-02T12:55:04;98379.09;;;11.32;79.95
84926;BME280;75187;48.190;16.294;2024-03-02T12:57:33;98458.44;;;11.94;79.21
84926;BME280;75187;48.190;16.294;2024-03-02T13:00:03;98365.78;;;11.33;78.51
84926;BME280;75187;48.190;16.294;2024-03-02T13:02:40;98452.38;;;11.84;79.28
84926;BME280;75187;48.190;16.294;2024-03-02T13:05:06;98471.25;;;11.89;78.83
84926;BME280;75187;48.190;16.294;2024-03-02T13:07:36;98468.78;;;11.87;79.20
84926;BME280;75187;48.190;16.294;2024-03-02T13:10:02;98415.91;;;11.70;78.39
84926;BME280;75187;48.190;16.294;2024-03-02T13:12:30;98449.84;;;11.92;78.75
84926;BME280;75187;48.190;16.294;2024-03-02T13:14:57;98409.94;;;11.68;78.98
84926;BME280;75187;48.190;16.294;2024-03-02T13:17:23;98424.63;;;11.80;79.33
84926;BME280;75187;48.190;16.294;2024-03-02T13:19:53;98446.09;;;12.12;78.85
84926;BME280;75187;48.190;16.294;2024-03-02T13:22:19;98453.13;;;12.21;78.76